Data for 11/01/2014

Time Sea-Level Adjusted Pressure Absolute Pressure Temperature Relative Humidity Dew Point   
(mb) (inHg) (mb) (inHg) (C) (F) (%) (C) (F)
00:05 1011 29.85 840 24.81 10.7 51.3 30 -5.9 21.3
00:10 1011 29.85 840 24.81 11 51.8 30 -5.8 21.5
00:15 1011 29.85 840 24.81 11 51.8 30 -5.8 21.5
00:20 1011 29.85 840 24.81 10.9 51.6 31 -5.6 22
00:25 1011 29.85 840 24.81 10.6 51 31 -5.8 21.5
00:30 1011 29.85 840 24.81 10.7 51.2 30 -6.2 20.8
00:35 1011 29.85 840 24.81 11.5 52.6 30 -5.6 22
00:40 1011 29.85 840 24.81 11.1 52 29 -6.2 20.9
00:45 1011 29.85 840 24.81 11.2 52.1 30 -5.6 21.9
00:50 1011 29.85 840 24.81 11.1 51.9 30 -5.8 21.6
00:55 1011 29.85 840 24.81 11 51.8 30 -5.8 21.6
01:00 1011 29.85 840 24.81 10.7 51.2 32 -5.4 22.3
01:05 1010 29.83 840 24.81 10.3 50.5 32 -5.8 21.5
01:10 1010 29.83 840 24.81 10.4 50.8 34 -4.9 23.2
01:15 1010 29.83 840 24.81 9.7 49.4 35 -5.2 22.6
01:20 1010 29.83 840 24.81 9.5 49.2 35 -5.3 22.5
01:25 1010 29.83 840 24.81 9.7 49.4 34 -5.6 22
01:30 1010 29.83 839 24.78 9.7 49.4 34 -5.6 21.9
01:35 1010 29.83 839 24.78 10 49.9 33 -5.6 21.9
01:40 1010 29.83 839 24.78 10.1 50.1 33 -5.4 22.3
01:45 1010 29.83 839 24.78 10.1 50.1 35 -4.8 23.3
01:50 1010 29.83 839 24.78 9.8 49.6 33 -5.6 21.9
01:55 1010 29.83 839 24.78 10 49.9 35 -4.8 23.3
02:00 1010 29.83 839 24.78 10 49.9 34 -5.3 22.5
02:05 1010 29.83 839 24.78 10.5 50.9 34 -4.9 23.2
02:10 1010 29.83 839 24.78 10.4 50.6 33 -5.1 22.8
02:15 1010 29.83 839 24.78 10.7 51.2 32 -5.1 22.8
02:20 1010 29.83 839 24.78 10.7 51.3 33 -4.8 23.4
02:25 1010 29.83 839 24.78 10.8 51.4 32 -5.1 22.8
02:30 1010 29.83 839 24.78 11.3 52.3 32 -4.8 23.4
02:35 1010 29.83 839 24.78 11.1 52 32 -4.8 23.3
02:40 1010 29.83 839 24.78 11.3 52.4 32 -4.9 23.2
02:45 1010 29.83 839 24.78 11.1 51.9 33 -4.4 24.1
02:50 1010 29.83 839 24.78 11 51.7 32 -4.9 23.2
02:55 1010 29.83 839 24.78 10.9 51.6 32 -5.1 22.9
03:00 1010 29.83 839 24.78 11.1 52 32 -5 23.1
03:05 1009 29.8 839 24.78 11 51.9 32 -5 23.1
03:10 1010 29.83 839 24.78 11 51.9 32 -5 23
03:15 1009 29.8 839 24.78 11.2 52.1 32 -5.1 22.8
03:20 1009 29.8 839 24.78 11.4 52.6 32 -4.6 23.7
03:25 1009 29.8 839 24.78 11.3 52.4 32 -4.9 23.2
03:30 1009 29.8 839 24.78 11.3 52.4 32 -4.8 23.4
03:35 1009 29.8 839 24.78 11.4 52.6 31 -5 22.9
03:40 1009 29.8 839 24.78 11.6 52.8 31 -4.8 23.3
03:45 1009 29.8 838 24.75 11.9 53.4 30 -4.9 23.2
03:50 1009 29.8 838 24.75 11.7 53.1 31 -4.6 23.7
03:55 1009 29.8 838 24.75 11.3 52.3 32 -4.6 23.7
04:00 1009 29.8 838 24.75 11.1 51.9 33 -4.7 23.6
04:05 1009 29.8 838 24.75 11.2 52.2 33 -4.5 23.9
04:10 1009 29.8 838 24.75 11.2 52.1 32 -4.9 23.1
04:15 1009 29.8 838 24.75 11.3 52.4 32 -4.5 23.8
04:20 1009 29.8 838 24.75 11.1 51.9 33 -4.5 23.9
04:25 1009 29.8 838 24.75 11.2 52.2 32 -4.8 23.4
04:30 1009 29.8 838 24.75 11.3 52.3 33 -4.5 23.9
04:35 1009 29.8 838 24.75 11.6 52.9 30 -5.2 22.6
04:40 1009 29.8 838 24.75 12.1 53.7 33 -3.9 25.1
04:45 1009 29.8 838 24.75 11.9 53.3 30 -5 23
04:50 1009 29.8 838 24.75 12 53.7 31 -4.6 23.7
04:55 1009 29.8 838 24.75 12.3 54.1 29 -5 22.9
05:00 1009 29.8 838 24.75 12.4 54.2 30 -4.6 23.7
05:05 1009 29.8 838 24.75 12.3 54.2 30 -4.5 23.9
05:10 1009 29.8 838 24.75 12.4 54.3 29 -5 23
05:15 1009 29.8 838 24.75 12.5 54.5 30 -4.7 23.6
05:20 1009 29.8 838 24.75 12.2 53.9 31 -4.4 24.1
05:25 1009 29.8 838 24.75 11.8 53.2 32 -4.5 23.9
05:30 1009 29.8 838 24.75 11.5 52.6 34 -4 24.8
05:35 1009 29.8 838 24.75 10.9 51.5 35 -4.1 24.6
05:40 1009 29.8 838 24.75 10.9 51.5 33 -4.8 23.4
05:45 1009 29.8 838 24.75 10.7 51.3 35 -4.1 24.7
05:50 1009 29.8 838 24.75 10.1 50.1 38 -3.6 25.4
05:55 1009 29.8 838 24.75 9.8 49.7 38 -3.9 25
06:00 1009 29.8 838 24.75 10.1 50.1 39 -3.4 25.9
06:05 1009 29.8 838 24.75 9.7 49.5 40 -3.1 26.4
06:10 1009 29.8 838 24.75 9.8 49.7 38 -3.7 25.3
06:15 1009 29.8 838 24.75 10.4 50.7 35 -4.4 24.2
06:20 1009 29.8 838 24.75 11.3 52.3 34 -3.9 25
06:25 1009 29.8 838 24.75 11 51.7 33 -4.8 23.4
06:30 1009 29.8 838 24.75 12.2 54 31 -4.3 24.3
06:35 1009 29.8 838 24.75 12.6 54.7 30 -4.3 24.3
06:40 1009 29.8 838 24.75 12.9 55.2 31 -3.8 25.2
06:45 1009 29.8 838 24.75 12.8 55.1 31 -4 24.9
06:50 1009 29.8 838 24.75 12.8 55 31 -4.1 24.7
06:55 1009 29.8 838 24.75 12.8 55 30 -4.2 24.5
07:00 1009 29.8 838 24.75 13 55.3 31 -3.7 25.3
07:05 1009 29.8 838 24.75 12.6 54.8 32 -3.7 25.4
07:10 1009 29.8 838 24.75 12.7 54.8 32 -3.6 25.5
07:15 1009 29.8 838 24.75 12.8 55 32 -3.5 25.7
07:20 1009 29.8 838 24.75 13 55.4 31 -3.6 25.5
07:25 1009 29.8 838 24.75 13.3 55.9 32 -3.1 26.4
07:30 1009 29.8 838 24.75 12.8 55 33 -3.2 26.3
07:35 1009 29.8 838 24.75 12.5 54.6 33 -3.1 26.4
07:40 1009 29.8 838 24.75 12.5 54.4 33 -3.1 26.4
07:45 1009 29.8 838 24.75 12.5 54.6 33 -3.4 25.9
07:50 1009 29.8 838 24.75 12.8 55 33 -3.1 26.5
07:55 1009 29.8 838 24.75 12.8 55 33 -2.9 26.7
08:00 1009 29.8 838 24.75 12.9 55.2 33 -3 26.5
08:05 1009 29.8 838 24.75 13 55.5 34 -2.5 27.5
08:10 1009 29.8 838 24.75 12.9 55.2 35 -2.2 28
08:15 1009 29.8 838 24.75 12.9 55.3 35 -2.2 28.1
08:20 1009 29.8 838 24.75 13.1 55.6 35 -2.1 28.2
08:25 1009 29.8 838 24.75 13.2 55.8 35 -2 28.4
08:30 1009 29.8 838 24.75 13.4 56.1 34 -1.9 28.6
08:35 1009 29.8 838 24.75 13.5 56.3 35 -1.6 29.1
08:40 1009 29.8 838 24.75 13.5 56.2 35 -1.6 29.2
08:45 1009 29.8 838 24.75 13.4 56.2 36 -1.4 29.5
08:50 1008 29.77 838 24.75 13.5 56.3 36 -1.4 29.6
08:55 1008 29.77 838 24.75 13.6 56.5 36 -1 30.1
09:00 1008 29.77 838 24.75 13.5 56.2 37 -0.8 30.6
09:05 1008 29.77 837 24.72 13.6 56.4 37 -0.7 30.7
09:10 1008 29.77 837 24.72 13.8 56.8 37 -0.5 31.1
09:15 1008 29.77 837 24.72 14 57.1 36 -0.6 30.9
09:20 1008 29.77 837 24.72 14.2 57.6 36 -0.4 31.2
09:25 1008 29.77 837 24.72 14.5 58.1 36 -0.4 31.3
09:30 1008 29.77 837 24.72 14.9 58.8 34 -0.7 30.7
09:35 1008 29.77 837 24.72 15.2 59.4 34 -0.6 31
09:40 1008 29.77 837 24.72 15.7 60.3 33 -0.5 31
09:45 1008 29.77 837 24.72 16.2 61.1 32 -0.6 30.8
09:50 1007 29.74 837 24.72 16.3 61.3 31 -0.6 30.9
09:55 1007 29.74 837 24.72 16.5 61.7 31 -0.7 30.7
10:00 1007 29.74 837 24.72 16.7 62 31 -0.6 30.9
10:05 1007 29.74 836 24.69 17.1 62.8 30 -0.5 31.1
10:10 1007 29.74 836 24.69 17 62.6 30 -0.5 31.2
10:15 1007 29.74 836 24.69 16.8 62.3 30 -0.6 30.8
10:20 1007 29.74 836 24.69 17 62.6 30 -0.7 30.8
10:25 1007 29.74 836 24.69 17.4 63.2 29 -0.7 30.8
10:30 1007 29.74 836 24.69 17.3 63.1 29 -0.8 30.6
10:35 1007 29.74 836 24.69 17.5 63.4 28 -1.2 29.9
10:40 1007 29.74 836 24.69 17.5 63.5 28 -1 30.1
10:45 1007 29.74 836 24.69 17.5 63.5 28 -1 30.2
10:50 1007 29.74 836 24.69 17.6 63.6 28 -0.9 30.5
10:55 1007 29.74 836 24.69 17.5 63.5 28 -0.9 30.4
11:00 1007 29.74 836 24.69 17.7 63.8 28 -0.9 30.3
11:05 1006 29.71 836 24.69 17.9 64.2 28 -0.9 30.4
11:10 1006 29.71 836 24.69 17.8 64 29 -0.6 30.9
11:15 1006 29.71 836 24.69 17.7 63.9 28 -0.9 30.4
11:20 1006 29.71 835 24.66 17.7 63.9 28 -1 30.2
11:25 1006 29.71 835 24.66 17.8 64 28 -0.9 30.3
11:30 1006 29.71 835 24.66 17.8 64.1 28 -1.1 30.1
11:35 1006 29.71 835 24.66 17.8 64 27 -1.3 29.7
11:40 1006 29.71 835 24.66 17.9 64.2 27 -1.2 29.8
11:45 1006 29.71 835 24.66 17.9 64.1 28 -0.9 30.4
11:50 1006 29.71 835 24.66 17.8 64 27 -1.3 29.6
11:55 1005 29.68 835 24.66 17.8 64.1 27 -1.1 30
12:00 1005 29.68 834 24.63 17.7 63.9 27 -1.2 29.9
12:05 1005 29.68 834 24.63 17.6 63.7 28 -1.1 30
12:10 1005 29.68 834 24.63 17.7 63.8 27 -1.3 29.7
12:15 1005 29.68 834 24.63 17.8 64.1 27 -1.1 30.1
12:20 1005 29.68 834 24.63 17.7 63.9 28 -1 30.2
12:25 1005 29.68 834 24.63 17.9 64.2 27 -1.5 29.4
12:30 1005 29.68 834 24.63 18.6 65.4 26 -0.9 30.3
12:35 1004 29.65 834 24.63 18.6 65.5 26 -1.3 29.6
12:40 1004 29.65 834 24.63 18.6 65.4 25 -1.5 29.4
12:45 1004 29.65 834 24.63 18.2 64.7 26 -1.6 29.1
12:50 1004 29.65 833 24.6 17.9 64.2 26 -2 28.4
12:55 1004 29.65 833 24.6 17.7 63.9 26 -1.9 28.6
13:00 1004 29.65 833 24.6 17.6 63.6 26 -1.9 28.5
13:05 1004 29.65 833 24.6 17.6 63.6 26 -2.3 27.9
13:10 1004 29.65 833 24.6 18 64.4 26 -1.8 28.7
13:15 1004 29.65 833 24.6 17.6 63.6 26 -1.9 28.5
13:20 1003 29.62 833 24.6 17.6 63.7 25 -2.3 27.9
13:25 1003 29.62 833 24.6 17.9 64.2 25 -2.1 28.2
13:30 1003 29.62 833 24.6 18 64.4 25 -1.9 28.5
13:35 1003 29.62 833 24.6 17.9 64.3 25 -2.1 28.3
13:40 1003 29.62 833 24.6 18.2 64.7 25 -2 28.3
13:45 1003 29.62 832 24.57 18.5 65.2 25 -1.9 28.5
13:50 1003 29.62 832 24.57 18.5 65.3 25 -1.9 28.7
13:55 1003 29.62 832 24.57 18.3 65 25 -1.9 28.6
14:00 1003 29.62 832 24.57 18 64.4 26 -1.9 28.5
14:05 1003 29.62 832 24.57 17.8 64 25 -2.2 28
14:10 1003 29.62 832 24.57 17.8 64 25 -2.2 28
14:15 1003 29.62 832 24.57 18 64.5 25 -2.1 28.2
14:20 1003 29.62 832 24.57 18.4 65.1 25 -1.8 28.8
14:25 1003 29.62 832 24.57 17.7 63.9 26 -1.8 28.7
14:30 1003 29.62 832 24.57 17.3 63.1 27 -1.7 28.9
14:35 1003 29.62 832 24.57 17.2 62.9 27 -1.9 28.5
14:40 1003 29.62 832 24.57 17 62.6 27 -1.9 28.6
14:45 1003 29.62 832 24.57 16.9 62.4 28 -1.8 28.7
14:50 1003 29.62 832 24.57 16.8 62.2 28 -2 28.4
14:55 1003 29.62 832 24.57 16.8 62.2 27 -2.4 27.6
15:00 1003 29.62 832 24.57 16.8 62.2 27 -2.1 28.3
15:05 1003 29.62 832 24.57 16.6 61.9 27 -2.6 27.4
15:10 1003 29.62 832 24.57 16.6 61.8 27 -2.5 27.5
15:15 1003 29.62 832 24.57 16.4 61.6 27 -2.4 27.7
15:20 1003 29.62 832 24.57 16.3 61.3 28 -2.3 27.8
15:25 1003 29.62 833 24.6 16.2 61.1 27 -2.6 27.3
15:30 1004 29.65 833 24.6 16.1 61 27 -2.9 26.8
15:35 1004 29.65 833 24.6 16.1 60.9 27 -3 26.6
15:40 1004 29.65 833 24.6 16.1 61 26 -3.2 26.3
15:45 1004 29.65 833 24.6 16.2 61.2 25 -3.8 25.2
15:50 1004 29.65 833 24.6 16.7 62.1 24 -3.6 25.5
15:55 1004 29.65 834 24.63 16.5 61.7 27 -2.6 27.3
16:00 1004 29.65 834 24.63 15.9 60.6 33 -0.1 31.9
16:05 1004 29.65 834 24.63 15.5 59.9 33 -0.7 30.8
16:10 1005 29.68 834 24.63 15.6 60 32 -0.8 30.6
16:15 1004 29.65 834 24.63 15.6 60 33 -0.6 31
16:20 1004 29.65 833 24.6 15.6 60.1 32 -0.7 30.7
16:25 1004 29.65 834 24.63 15.6 60.1 33 -0.4 31.3
16:30 1005 29.68 834 24.63 15.3 59.5 37 0.8 33.5
16:35 1005 29.68 834 24.63 15.1 59.2 38 0.8 33.5
16:40 1005 29.68 834 24.63 15.1 59.1 39 1.4 34.4
16:45 1005 29.68 834 24.63 14.3 57.7 49 3.8 38.8
16:50 1005 29.68 834 24.63 13.4 56.1 49 3.1 37.6
16:55 1005 29.68 834 24.63 13.3 55.9 51 3.5 38.2
17:00 1005 29.68 835 24.66 13.1 55.6 50 3.1 37.5
17:05 1006 29.71 835 24.66 13.1 55.5 53 3.7 38.7
17:10 1005 29.68 835 24.66 12.7 54.8 55 3.9 39
17:15 1006 29.71 835 24.66 12.5 54.5 57 4.4 39.9
17:20 1006 29.71 835 24.66 12.1 53.8 61 4.9 40.9
17:25 1006 29.71 835 24.66 11.5 52.8 64 5 41
17:30 1006 29.71 835 24.66 11.3 52.4 65 4.9 40.9
17:35 1006 29.71 835 24.66 11 51.9 69 5.6 42.1
17:40 1007 29.74 836 24.69 10.8 51.4 68 5 41.1
17:45 1007 29.74 836 24.69 10.7 51.3 67 4.8 40.6
17:50 1007 29.74 836 24.69 10.4 50.8 67 4.6 40.3
17:55 1007 29.74 836 24.69 9.6 49.3 73 5 41
18:00 1007 29.74 836 24.69 9.2 48.6 71 4.3 39.8
18:05 1007 29.74 836 24.69 9.4 49 72 4.6 40.3
18:10 1007 29.74 836 24.69 9.1 48.3 74 4.8 40.6
18:15 1007 29.74 836 24.69 8.9 48 73 4.4 39.9
18:20 1007 29.74 836 24.69 9.3 48.7 65 2.9 37.3
18:25 1007 29.74 836 24.69 10 50.1 57 2 35.6
18:30 1007 29.74 836 24.69 10.5 50.9 51 0.8 33.4
18:35 1007 29.74 836 24.69 10.8 51.4 50 0.9 33.5
18:40 1006 29.71 836 24.69 10.6 51 49 0.3 32.5
18:45 1006 29.71 835 24.66 10.6 51 50 0.6 33.1
18:50 1006 29.71 835 24.66 10.5 50.8 52 1 33.9
18:55 1006 29.71 835 24.66 10.4 50.6 53 1.3 34.4
19:00 1006 29.71 835 24.66 10.1 50.1 56 1.6 34.9
19:05 1006 29.71 835 24.66 9.5 49 62 2.5 36.5
19:10 1006 29.71 835 24.66 8.8 47.9 66 2.9 37.2
19:15 1006 29.71 835 24.66 8.7 47.6 69 3.2 37.8
19:20 1006 29.71 835 24.66 8.5 47.2 70 3.4 38.1
19:25 1006 29.71 835 24.66 8.5 47.2 70 3.4 38.1
19:30 1006 29.71 835 24.66 8.6 47.5 69 3.3 38
19:35 1006 29.71 835 24.66 8.8 47.8 67 3.1 37.6
19:40 1006 29.71 836 24.69 9.1 48.4 65 2.9 37.2
19:45 1006 29.71 836 24.69 9.5 49.1 64 3 37.4
19:50 1006 29.71 836 24.69 9.5 49.1 63 2.9 37.2
19:55 1007 29.74 836 24.69 9.8 49.6 47 -1.1 30
20:00 1007 29.74 836 24.69 10.2 50.3 39 -3.1 26.5
20:05 1007 29.74 836 24.69 10.3 50.6 48 -0.2 31.7
20:10 1007 29.74 836 24.69 9.6 49.3 41 -2.9 26.7
20:15 1007 29.74 836 24.69 10 50 37 -3.9 24.9
20:20 1007 29.74 836 24.69 10 50 44 -1.5 29.2
20:25 1007 29.74 836 24.69 9.5 49.1 39 -3.6 25.5
20:30 1007 29.74 836 24.69 9.9 49.8 41 -2.6 27.3
20:35 1007 29.74 836 24.69 9.4 48.8 54 0.5 32.9
20:40 1007 29.74 836 24.69 8.6 47.4 58 0.9 33.6
20:45 1007 29.74 836 24.69 8.1 46.7 60 0.9 33.6
20:50 1007 29.74 836 24.69 7.8 46.1 61 0.8 33.5
20:55 1007 29.74 836 24.69 7.8 46 55 -0.8 30.6
21:00 1007 29.74 836 24.69 7.8 46 60 0.4 32.8
21:05 1007 29.74 836 24.69 7.5 45.4 61 0.4 32.7
21:10 1007 29.74 836 24.69 7.1 44.8 64 0.8 33.4
21:15 1007 29.74 836 24.69 7.1 44.7 59 -0.3 31.5
21:20 1007 29.74 836 24.69 7.2 44.9 61 0.2 32.3
21:25 1007 29.74 836 24.69 6.7 44.1 61 -0.3 31.5
21:30 1007 29.74 836 24.69 6.6 43.9 59 -0.7 30.7
21:35 1007 29.74 836 24.69 6.4 43.6 65 0.4 32.7
21:40 1007 29.74 836 24.69 5.9 42.6 67 0.2 32.3
21:45 1007 29.74 836 24.69 5.9 42.6 62 -0.7 30.7
21:50 1007 29.74 836 24.69 6.4 43.6 57 -1.3 29.6
21:55 1007 29.74 836 24.69 7 44.6 54 -1.7 28.9
22:00 1007 29.74 836 24.69 7.6 45.6 53 -1.3 29.7
22:05 1007 29.74 836 24.69 7.4 45.2 47 -3.2 26.2
22:10 1007 29.74 836 24.69 8.1 46.5 50 -1.8 28.7
22:15 1007 29.74 836 24.69 7.7 45.8 52 -1.4 29.5
22:20 1007 29.74 836 24.69 7.7 45.8 50 -2.2 28.1
22:25 1007 29.74 836 24.69 8.3 47 46 -2.5 27.5
22:30 1007 29.74 836 24.69 8.4 47 47 -2.2 28.1
22:35 1007 29.74 836 24.69 8.5 47.3 41 -3.9 24.9
22:40 1007 29.74 836 24.69 9.2 48.5 41 -3.4 25.9
22:45 1007 29.74 836 24.69 8.9 48 41 -3.5 25.7
22:50 1007 29.74 836 24.69 8.9 48 41 -3.6 25.5
22:55 1007 29.74 836 24.69 9.1 48.3 41 -3.6 25.5
23:00 1007 29.74 836 24.69 9.3 48.7 40 -3.5 25.8
23:05 1007 29.74 836 24.69 9.2 48.5 43 -2.7 27.1
23:10 1007 29.74 836 24.69 8.9 48 44 -2.8 27
23:15 1007 29.74 836 24.69 8.8 47.9 44 -2.8 27
23:20 1007 29.74 836 24.69 8.8 47.9 45 -2.6 27.4
23:25 1007 29.74 836 24.69 8.5 47.4 46 -2.3 27.9
23:30 1007 29.74 836 24.69 8.3 47 44 -3.1 26.4
23:35 1007 29.74 836 24.69 8.4 47.1 46 -2.6 27.4
23:40 1007 29.74 836 24.69 8.2 46.8 43 -3.6 25.4
23:45 1007 29.74 836 24.69 8.4 47 45 -2.9 26.8
23:50 1007 29.74 836 24.69 8 46.3 45 -3.3 26.1
23:55 1007 29.74 836 24.69 8 46.3 46 -2.8 27
24:00 1007 29.74 836 24.69 8 46.3 45 -3.3 26.1